Time;durP1;ratioP1;P1;durP2;ratioP2;P2;SDS_P1;SDS_P2;PMS_P1;PMS_P2;Temp;Humidity;BMP_temperature;BMP_pressure;BME280_temperature;BME280_humidity;BME280_pressure;Samples;Min_cycle;Max_cycle;Signal;HPM_P1;HPM_P2
2022/01/06 00:00:39;;;;;;;;;;;3.70;99.90;;;;;;4961833;28;20053;-70
2022/01/06 00:03:07;;;;;;;;;;;3.60;99.90;;;;;;4961772;28;20061;-70
2022/01/06 00:05:35;;;;;;;;;;;3.60;99.90;;;;;;4960672;28;21062;-70
2022/01/06 00:08:03;;;;;;;;;;;3.60;99.90;;;;;;4961574;28;20154;-70
2022/01/06 00:10:31;;;;;;;;;;;3.50;99.90;;;;;;4962146;28;20164;-70
2022/01/06 00:13:10;;;;;;;;;;;3.60;99.90;;;;;;4961158;28;21147;-70
2022/01/06 00:15:43;;;;;;;;;;;3.60;99.90;;;;;;4961980;28;20059;-71
2022/01/06 00:18:24;;;;;;;;;;;3.60;99.90;;;;;;4961458;28;20061;-70
2022/01/06 00:23:39;;;;;;;;;;;3.60;99.90;;;;;;4960897;28;21201;-71
2022/01/06 00:26:07;;;;;;;;;;;3.60;99.90;;;;;;4960770;28;21164;-70
2022/01/06 00:28:34;;;;;;;;;;;3.60;99.90;;;;;;4961545;28;21021;-70
2022/01/06 00:31:01;;;;;;;;;;;3.70;99.90;;;;;;4962129;28;21094;-70
2022/01/06 00:33:30;;;;;;;;;;;3.80;99.90;;;;;;4961408;28;20070;-70
2022/01/06 00:35:59;;;;;;;;;;;3.70;99.90;;;;;;4961345;28;20135;-70
2022/01/06 00:38:26;;;;;;;;;;;3.80;99.90;;;;;;4961547;28;20053;-70
2022/01/06 00:40:54;;;;;;;;;;;3.80;99.90;;;;;;4962122;28;20143;-70
2022/01/06 00:43:21;;;;;;;;;;;3.80;99.90;;;;;;4961310;28;20061;-70
2022/01/06 00:45:48;;;;;;;;;;;3.90;99.90;;;;;;4961102;28;20311;-70
2022/01/06 00:48:15;;;;;;;;;;;3.90;99.90;;;;;;4960906;28;21211;-70
2022/01/06 00:50:43;;;;;;;;;;;3.90;99.90;;;;;;4960973;28;20072;-70
2022/01/06 00:53:12;;;;;;;;;;;4.00;99.90;;;;;;4960922;28;20053;-70
2022/01/06 00:55:40;;;;;;;;;;;4.00;99.90;;;;;;4960748;28;21130;-69
2022/01/06 00:58:08;;;;;;;;;;;4.00;99.90;;;;;;4960480;28;20053;-70
2022/01/06 01:00:39;;;;;;;;;;;4.00;99.90;;;;;;4960969;28;20101;-70
2022/01/06 01:03:07;;;;;;;;;;;4.00;99.90;;;;;;4959995;28;20163;-70
2022/01/06 01:05:34;;;;;;;;;;;4.00;99.90;;;;;;4960932;28;20076;-71
2022/01/06 01:08:01;;;;;;;;;;;3.90;99.90;;;;;;4960159;28;21050;-70
2022/01/06 01:10:30;;;;;;;;;;;3.90;99.90;;;;;;4960504;28;21143;-70
2022/01/06 01:12:57;;;;;;;;;;;3.80;99.90;;;;;;4961201;28;20058;-71
2022/01/06 01:15:26;;;;;;;;;;;3.80;99.90;;;;;;4961354;28;21033;-70
2022/01/06 01:17:54;;;;;;;;;;;3.80;99.90;;;;;;4960311;28;20061;-70
2022/01/06 01:20:21;;;;;;;;;;;3.80;99.90;;;;;;4960298;28;20089;-70
2022/01/06 01:22:49;;;;;;;;;;;3.70;99.90;;;;;;4961092;28;20133;-70
2022/01/06 01:25:16;;;;;;;;;;;3.70;99.90;;;;;;4960872;28;20078;-71
2022/01/06 01:27:45;;;;;;;;;;;3.60;99.90;;;;;;4959423;28;20069;-70
2022/01/06 01:30:14;;;;;;;;;;;3.60;99.90;;;;;;4961019;28;20212;-70
2022/01/06 01:32:46;;;;;;;;;;;3.50;99.90;;;;;;4960946;28;20101;-70
2022/01/06 01:35:13;;;;;;;;;;;3.50;99.90;;;;;;4960374;28;20253;-71
2022/01/06 01:37:41;;;;;;;;;;;3.50;99.90;;;;;;4960430;28;21034;-70
2022/01/06 01:40:09;;;;;;;;;;;3.40;99.90;;;;;;4960612;28;20069;-71
2022/01/06 01:42:36;;;;;;;;;;;3.30;99.90;;;;;;4960447;28;20114;-70
2022/01/06 01:45:06;;;;;;;;;;;3.30;99.90;;;;;;4960145;28;20085;-70
2022/01/06 01:47:39;;;;;;;;;;;3.20;99.90;;;;;;4959927;28;20229;-71
2022/01/06 01:50:12;;;;;;;;;;;3.20;99.90;;;;;;4960110;28;21191;-70
2022/01/06 01:52:41;;;;;;;;;;;3.10;99.90;;;;;;4960425;28;20259;-70
2022/01/06 01:55:08;;;;;;;;;;;3.00;99.90;;;;;;4960625;28;20053;-70
2022/01/06 01:57:36;;;;;;;;;;;3.00;99.90;;;;;;4960111;28;21235;-70
2022/01/06 02:00:05;;;;;;;;;;;3.00;99.90;;;;;;4959528;28;21007;-70
2022/01/06 02:02:39;;;;;;;;;;;2.90;99.90;;;;;;4946018;28;20183;-70
2022/01/06 02:05:07;;;;;;;;;;;2.90;99.90;;;;;;4961549;28;20062;-70
2022/01/06 02:07:34;;;;;;;;;;;3.00;99.90;;;;;;4959952;28;20143;-70
2022/01/06 02:10:02;;;;;;;;;;;2.90;99.90;;;;;;4960265;28;20052;-70
2022/01/06 02:12:32;;;;;;;;;;;2.90;99.90;;;;;;4960150;28;20060;-70
2022/01/06 02:14:59;;;;;;;;;;;2.90;99.90;;;;;;4960355;28;20059;-70
2022/01/06 02:17:27;;;;;;;;;;;2.90;99.90;;;;;;4959490;28;20143;-70
2022/01/06 02:19:56;;;;;;;;;;;2.80;99.90;;;;;;4959992;28;20090;-70
2022/01/06 02:22:24;;;;;;;;;;;2.80;99.90;;;;;;4960139;28;20076;-70
2022/01/06 02:24:51;;;;;;;;;;;2.80;99.90;;;;;;4960325;28;20067;-71
2022/01/06 02:27:21;;;;;;;;;;;2.80;99.90;;;;;;4959641;28;20069;-70
2022/01/06 02:29:48;;;;;;;;;;;2.70;99.90;;;;;;4959084;28;20060;-70
2022/01/06 02:32:17;;;;;;;;;;;2.60;99.90;;;;;;4959971;28;21056;-70
2022/01/06 02:34:44;;;;;;;;;;;2.60;99.90;;;;;;4964445;28;20267;-70
2022/01/06 02:37:14;;;;;;;;;;;2.60;99.90;;;;;;4963668;28;20052;-70
2022/01/06 02:39:41;;;;;;;;;;;2.60;99.90;;;;;;4963425;28;20086;-71
2022/01/06 02:42:09;;;;;;;;;;;2.60;99.90;;;;;;4963568;28;20101;-70
2022/01/06 02:44:38;;;;;;;;;;;2.60;99.90;;;;;;4962823;28;20059;-70
2022/01/06 02:47:05;;;;;;;;;;;2.50;99.90;;;;;;4963181;28;20274;-71
2022/01/06 02:49:33;;;;;;;;;;;2.50;99.90;;;;;;4963247;28;21036;-71
2022/01/06 02:52:00;;;;;;;;;;;2.40;99.90;;;;;;4963023;28;20089;-70
2022/01/06 02:54:29;;;;;;;;;;;2.40;99.90;;;;;;4963405;28;20069;-70
2022/01/06 02:56:56;;;;;;;;;;;2.40;99.90;;;;;;4962553;28;20134;-70
2022/01/06 02:59:23;;;;;;;;;;;2.30;99.90;;;;;;4968032;28;20188;-70
2022/01/06 03:01:50;;;;;;;;;;;2.20;99.90;;;;;;4982244;28;21237;-70
2022/01/06 03:04:19;;;;;;;;;;;2.20;99.90;;;;;;4982918;28;20060;-70
2022/01/06 03:06:46;;;;;;;;;;;2.10;99.90;;;;;;4982807;28;20158;-70
2022/01/06 03:09:13;;;;;;;;;;;2.20;99.90;;;;;;4965488;28;20061;-70
2022/01/06 03:11:44;;;;;;;;;;;2.20;99.90;;;;;;4982199;28;21090;-70
2022/01/06 03:14:11;;;;;;;;;;;2.30;99.90;;;;;;4983468;28;20151;-70
2022/01/06 03:16:38;;;;;;;;;;;2.30;99.90;;;;;;4983030;28;20129;-70
2022/01/06 03:19:05;;;;;;;;;;;2.30;99.90;;;;;;4982263;28;20060;-70
2022/01/06 03:21:32;;;;;;;;;;;2.30;99.90;;;;;;4982279;28;20082;-70
2022/01/06 03:23:59;;;;;;;;;;;2.30;99.90;;;;;;4982058;28;20061;-70
2022/01/06 03:26:27;;;;;;;;;;;2.20;99.90;;;;;;4981879;28;21407;-71
2022/01/06 03:28:55;;;;;;;;;;;2.10;99.90;;;;;;4982681;28;20082;-71
2022/01/06 03:31:23;;;;;;;;;;;2.10;99.90;;;;;;4982571;28;20060;-70
2022/01/06 03:33:51;;;;;;;;;;;2.10;99.90;;;;;;4981480;28;20058;-70
2022/01/06 03:36:18;;;;;;;;;;;2.10;99.90;;;;;;4982008;28;20075;-70
2022/01/06 03:38:45;;;;;;;;;;;2.00;99.90;;;;;;4965664;28;20077;-70
2022/01/06 03:41:12;;;;;;;;;;;2.00;99.90;;;;;;4965960;28;20082;-71
2022/01/06 03:43:39;;;;;;;;;;;2.00;99.90;;;;;;4981338;28;20061;-71
2022/01/06 03:46:08;;;;;;;;;;;1.90;99.90;;;;;;4982016;28;20060;-70
2022/01/06 03:48:35;;;;;;;;;;;2.00;99.90;;;;;;4981953;28;20075;-70
2022/01/06 03:51:02;;;;;;;;;;;1.90;99.90;;;;;;4982450;28;20134;-70
2022/01/06 03:53:29;;;;;;;;;;;1.90;99.90;;;;;;4981810;28;20164;-71
2022/01/06 03:55:56;;;;;;;;;;;1.90;99.90;;;;;;4982642;28;20061;-70
2022/01/06 03:58:23;;;;;;;;;;;1.90;99.90;;;;;;4981619;28;20062;-71
2022/01/06 04:00:51;;;;;;;;;;;1.80;99.90;;;;;;4981736;28;20061;-70
2022/01/06 04:03:19;;;;;;;;;;;1.80;99.90;;;;;;4980958;28;21227;-70
2022/01/06 04:05:47;;;;;;;;;;;1.80;99.90;;;;;;4964712;28;20082;-70
2022/01/06 04:08:14;;;;;;;;;;;1.70;99.90;;;;;;4981811;28;20101;-69
2022/01/06 04:10:41;;;;;;;;;;;1.60;99.90;;;;;;4982002;28;20067;-70
2022/01/06 04:13:08;;;;;;;;;;;1.60;99.90;;;;;;4977249;28;21078;-70
2022/01/06 04:15:35;;;;;;;;;;;1.60;99.90;;;;;;4981801;28;20219;-70
2022/01/06 04:18:02;;;;;;;;;;;1.50;99.90;;;;;;4983242;28;20092;-71
2022/01/06 04:20:31;;;;;;;;;;;1.60;99.90;;;;;;4983787;28;21157;-71
2022/01/06 04:22:58;;;;;;;;;;;1.60;99.90;;;;;;4983002;28;21124;-70
2022/01/06 04:25:25;;;;;;;;;;;1.50;99.90;;;;;;4983601;28;20290;-70
2022/01/06 04:27:52;;;;;;;;;;;1.50;99.90;;;;;;4982973;28;20059;-70
2022/01/06 04:30:19;;;;;;;;;;;1.60;99.90;;;;;;4983393;28;20069;-70
2022/01/06 04:32:46;;;;;;;;;;;1.60;99.90;;;;;;4982961;28;20061;-71
2022/01/06 04:35:13;;;;;;;;;;;1.50;99.90;;;;;;4966810;28;20052;-70
2022/01/06 04:37:42;;;;;;;;;;;1.50;99.90;;;;;;4982838;28;20059;-70
2022/01/06 04:40:09;;;;;;;;;;;1.50;99.90;;;;;;4983140;28;20067;-70
2022/01/06 04:42:37;;;;;;;;;;;1.40;99.90;;;;;;4983210;28;20052;-71
2022/01/06 04:45:05;;;;;;;;;;;1.40;99.90;;;;;;4983215;28;20052;-70
2022/01/06 04:47:32;;;;;;;;;;;1.50;99.90;;;;;;4982801;28;20053;-70
2022/01/06 04:49:59;;;;;;;;;;;1.50;99.90;;;;;;4982702;28;20076;-71
2022/01/06 04:52:27;;;;;;;;;;;1.50;99.90;;;;;;4982943;28;21113;-70
2022/01/06 04:54:55;;;;;;;;;;;1.50;99.90;;;;;;4982956;28;21099;-70
2022/01/06 04:57:23;;;;;;;;;;;1.50;99.90;;;;;;4982380;28;20061;-70
2022/01/06 04:59:50;;;;;;;;;;;1.50;99.90;;;;;;4982519;28;20063;-71
2022/01/06 05:02:17;;;;;;;;;;;1.50;99.90;;;;;;4966330;28;20092;-70
2022/01/06 05:04:44;;;;;;;;;;;1.60;99.90;;;;;;4983375;28;20116;-70
2022/01/06 05:07:11;;;;;;;;;;;1.60;99.90;;;;;;4982634;28;20060;-70
2022/01/06 05:09:38;;;;;;;;;;;1.50;99.90;;;;;;4982536;28;20068;-71
2022/01/06 05:12:07;;;;;;;;;;;1.40;99.90;;;;;;4982948;28;20060;-70
2022/01/06 05:14:34;;;;;;;;;;;1.50;99.90;;;;;;4982294;28;20163;-70
2022/01/06 05:17:02;;;;;;;;;;;1.40;99.90;;;;;;4981324;28;20064;-70
2022/01/06 05:19:29;;;;;;;;;;;1.50;99.90;;;;;;4980868;28;20176;-70
2022/01/06 05:21:56;;;;;;;;;;;1.50;99.90;;;;;;4980265;28;20259;-70
2022/01/06 05:24:24;;;;;;;;;;;1.40;99.90;;;;;;4980468;28;20067;-71
2022/01/06 05:26:53;;;;;;;;;;;1.40;99.90;;;;;;4979822;28;20254;-70
2022/01/06 05:29:22;;;;;;;;;;;1.40;99.90;;;;;;4980393;28;21069;-72
2022/01/06 05:31:50;;;;;;;;;;;1.40;99.90;;;;;;4980502;28;20069;-72
2022/01/06 05:34:17;;;;;;;;;;;1.40;99.90;;;;;;4964246;28;21065;-73
2022/01/06 05:36:44;;;;;;;;;;;1.50;99.90;;;;;;4980351;28;21298;-73
2022/01/06 05:39:11;;;;;;;;;;;1.50;99.90;;;;;;4980521;28;20068;-72
2022/01/06 05:41:39;;;;;;;;;;;1.50;99.90;;;;;;4980057;28;20109;-72
2022/01/06 05:44:06;;;;;;;;;;;1.50;99.90;;;;;;4980443;28;20060;-72
2022/01/06 05:46:34;;;;;;;;;;;1.60;99.90;;;;;;4980046;28;20052;-72
2022/01/06 05:49:02;;;;;;;;;;;1.50;99.90;;;;;;4980428;28;20083;-72
2022/01/06 05:51:29;;;;;;;;;;;1.60;99.90;;;;;;4980557;28;20094;-72
2022/01/06 05:53:56;;;;;;;;;;;1.50;99.90;;;;;;4979776;28;20060;-72
2022/01/06 05:56:23;;;;;;;;;;;1.60;99.90;;;;;;4980286;28;20157;-72
2022/01/06 05:58:50;;;;;;;;;;;1.60;99.90;;;;;;4979944;28;20052;-72
2022/01/06 06:01:17;;;;;;;;;;;1.70;99.90;;;;;;4977548;28;20052;-72
2022/01/06 06:03:46;;;;;;;;;;;1.70;99.90;;;;;;4955955;28;20076;-72
2022/01/06 06:06:13;;;;;;;;;;;1.60;99.90;;;;;;4977429;28;20079;-72
2022/01/06 06:08:40;;;;;;;;;;;1.60;99.90;;;;;;4947121;28;20061;-72
2022/01/06 06:11:07;;;;;;;;;;;1.60;99.90;;;;;;4955490;28;20069;-73
2022/01/06 06:13:34;;;;;;;;;;;1.70;99.90;;;;;;4983440;28;20060;-72
2022/01/06 06:16:01;;;;;;;;;;;1.70;99.90;;;;;;4983645;28;20052;-72
2022/01/06 06:18:28;;;;;;;;;;;1.60;99.90;;;;;;4983324;28;20081;-72
2022/01/06 06:20:57;;;;;;;;;;;1.60;99.90;;;;;;4969568;28;20079;-72
2022/01/06 06:23:24;;;;;;;;;;;1.60;99.90;;;;;;4983595;28;20077;-72
2022/01/06 06:25:51;;;;;;;;;;;1.60;99.90;;;;;;4967588;28;20069;-71
2022/01/06 06:28:18;;;;;;;;;;;1.50;99.90;;;;;;4965388;28;20145;-71
2022/01/06 06:30:46;;;;;;;;;;;1.50;99.90;;;;;;4967921;28;20060;-72
2022/01/06 06:33:13;;;;;;;;;;;1.50;99.90;;;;;;4983020;28;21102;-73
2022/01/06 06:35:40;;;;;;;;;;;1.50;99.90;;;;;;4983138;28;20100;-71
2022/01/06 06:38:09;;;;;;;;;;;1.50;99.90;;;;;;4983675;28;20061;-71
2022/01/06 06:40:36;;;;;;;;;;;1.50;99.90;;;;;;4983625;28;20091;-72
2022/01/06 06:43:03;;;;;;;;;;;1.50;99.90;;;;;;4982812;28;20061;-71
2022/01/06 06:45:30;;;;;;;;;;;1.50;99.90;;;;;;4981936;28;20059;-72
2022/01/06 06:47:57;;;;;;;;;;;1.40;99.90;;;;;;4982614;28;20141;-72
2022/01/06 06:50:25;;;;;;;;;;;1.30;99.90;;;;;;4983381;28;21062;-72
2022/01/06 06:52:52;;;;;;;;;;;1.20;99.90;;;;;;4983229;28;20060;-72
2022/01/06 06:55:20;;;;;;;;;;;1.20;99.90;;;;;;4983051;28;20208;-72
2022/01/06 06:57:47;;;;;;;;;;;1.10;99.90;;;;;;4982618;28;20052;-71
2022/01/06 07:00:15;;;;;;;;;;;1.10;99.90;;;;;;4983971;28;20052;-72
2022/01/06 07:02:42;;;;;;;;;;;1.00;99.90;;;;;;4982615;28;20060;-72
2022/01/06 07:05:10;;;;;;;;;;;0.90;99.90;;;;;;4983270;28;20171;-72
2022/01/06 07:07:37;;;;;;;;;;;1.00;99.90;;;;;;4980992;28;20101;-72
2022/01/06 07:10:04;;;;;;;;;;;1.00;99.90;;;;;;4981328;28;20064;-72
2022/01/06 07:12:33;;;;;;;;;;;0.90;99.90;;;;;;4951782;28;20202;-72
2022/01/06 07:15:02;;;;;;;;;;;0.90;99.90;;;;;;4982633;28;20077;-72
2022/01/06 07:17:29;;;;;;;;;;;0.80;99.90;;;;;;4983164;28;20065;-72
2022/01/06 07:19:56;;;;;;;;;;;0.80;99.90;;;;;;4981707;28;20069;-72
2022/01/06 07:22:24;;;;;;;;;;;0.90;99.90;;;;;;4981983;28;20080;-71
2022/01/06 07:24:51;;;;;;;;;;;1.00;99.90;;;;;;4983496;28;21273;-72
2022/01/06 07:27:18;;;;;;;;;;;1.00;99.90;;;;;;4980388;28;20091;-72
2022/01/06 07:29:47;;;;;;;;;;;1.00;99.90;;;;;;4982213;28;20069;-72
2022/01/06 07:32:14;;;;;;;;;;;1.00;99.90;;;;;;4983190;28;20069;-72
2022/01/06 07:34:41;;;;;;;;;;;1.00;99.90;;;;;;4982834;28;20069;-72
2022/01/06 07:37:08;;;;;;;;;;;1.00;99.90;;;;;;4966095;28;20068;-72
2022/01/06 07:39:36;;;;;;;;;;;1.00;99.90;;;;;;4982619;28;20061;-72
2022/01/06 07:42:03;;;;;;;;;;;1.00;99.90;;;;;;4983332;28;20281;-72
2022/01/06 07:44:31;;;;;;;;;;;0.90;99.90;;;;;;4983189;28;20080;-72
2022/01/06 07:47:00;;;;;;;;;;;0.80;99.90;;;;;;4982674;28;21164;-72
2022/01/06 07:49:27;;;;;;;;;;;0.80;99.90;;;;;;4984174;28;20068;-72
2022/01/06 07:51:55;;;;;;;;;;;0.90;99.90;;;;;;4986335;28;20068;-72
2022/01/06 07:54:22;;;;;;;;;;;0.90;99.90;;;;;;4968142;28;20060;-72
2022/01/06 07:56:50;;;;;;;;;;;0.80;99.90;;;;;;4984365;28;21236;-72
2022/01/06 07:59:17;;;;;;;;;;;0.70;99.90;;;;;;4984496;28;20076;-72
2022/01/06 08:01:44;;;;;;;;;;;0.70;99.90;;;;;;4984867;28;20060;-71
2022/01/06 08:04:13;;;;;;;;;;;0.80;99.90;;;;;;4988034;28;20059;-72
2022/01/06 08:06:40;;;;;;;;;;;0.80;99.90;;;;;;4986604;28;20068;-72
2022/01/06 08:09:08;;;;;;;;;;;0.80;99.90;;;;;;4983897;28;20060;-71
2022/01/06 08:11:35;;;;;;;;;;;0.90;99.90;;;;;;4985372;28;21110;-72
2022/01/06 08:14:03;;;;;;;;;;;0.90;99.90;;;;;;4983257;28;20228;-72
2022/01/06 08:16:30;;;;;;;;;;;0.90;99.90;;;;;;4984358;28;20178;-71
2022/01/06 08:18:57;;;;;;;;;;;0.90;99.90;;;;;;4983437;28;20068;-72
2022/01/06 08:21:26;;;;;;;;;;;0.90;99.90;;;;;;4983908;28;20174;-72
2022/01/06 08:23:53;;;;;;;;;;;0.90;99.90;;;;;;4983658;28;20052;-72
2022/01/06 08:26:21;;;;;;;;;;;0.90;99.90;;;;;;4982696;28;20062;-72
2022/01/06 08:28:48;;;;;;;;;;;0.90;99.90;;;;;;4982882;28;20069;-72
2022/01/06 08:31:16;;;;;;;;;;;0.90;99.90;;;;;;4983661;28;20118;-71
2022/01/06 08:33:43;;;;;;;;;;;0.90;99.90;;;;;;4983615;28;20069;-72
2022/01/06 08:36:11;;;;;;;;;;;0.90;99.90;;;;;;4983755;28;20069;-72
2022/01/06 08:38:39;;;;;;;;;;;0.90;99.90;;;;;;4982125;28;20210;-71
2022/01/06 08:41:06;;;;;;;;;;;0.90;99.90;;;;;;4982871;28;20061;-72
2022/01/06 08:43:34;;;;;;;;;;;1.10;99.90;;;;;;4981544;28;20256;-72
2022/01/06 08:46:01;;;;;;;;;;;1.20;99.90;;;;;;4983517;28;20168;-72
2022/01/06 08:48:29;;;;;;;;;;;1.20;99.90;;;;;;4983582;28;21150;-72
2022/01/06 08:50:56;;;;;;;;;;;1.30;99.90;;;;;;4982590;28;20272;-72
2022/01/06 08:53:24;;;;;;;;;;;1.30;99.90;;;;;;4981584;28;21178;-72
2022/01/06 08:55:52;;;;;;;;;;;1.40;99.90;;;;;;4981416;28;20076;-72
2022/01/06 08:58:19;;;;;;;;;;;1.40;99.90;;;;;;4980815;28;20068;-72
2022/01/06 09:00:46;;;;;;;;;;;1.50;99.90;;;;;;4981728;28;20060;-72
2022/01/06 09:03:13;;;;;;;;;;;1.60;99.90;;;;;;4981503;28;21153;-71
2022/01/06 09:05:41;;;;;;;;;;;1.70;99.90;;;;;;4981385;28;20155;-71
2022/01/06 09:08:08;;;;;;;;;;;1.80;99.90;;;;;;4979999;28;20052;-70
2022/01/06 09:10:36;;;;;;;;;;;1.90;99.90;;;;;;4978537;28;21208;-71
2022/01/06 09:13:05;;;;;;;;;;;2.00;99.90;;;;;;4980710;28;20117;-70
2022/01/06 09:15:32;;;;;;;;;;;2.10;99.90;;;;;;4982414;28;20060;-70
2022/01/06 09:17:59;;;;;;;;;;;2.20;99.90;;;;;;4981985;28;21158;-70
2022/01/06 09:20:29;;;;;;;;;;;2.30;99.90;;;;;;4982906;28;20184;-70
2022/01/06 09:22:56;;;;;;;;;;;2.40;99.90;;;;;;4982604;28;20061;-71
2022/01/06 09:25:23;;;;;;;;;;;2.50;99.90;;;;;;4965575;28;20060;-70
2022/01/06 09:27:51;;;;;;;;;;;2.70;99.90;;;;;;4962994;28;21107;-70
2022/01/06 09:30:23;;;;;;;;;;;2.90;99.90;;;;;;4956095;28;20060;-71
2022/01/06 09:32:50;;;;;;;;;;;3.10;99.90;;;;;;4944724;28;21079;-70
2022/01/06 09:35:17;;;;;;;;;;;3.20;99.90;;;;;;4961562;28;20052;-70
2022/01/06 09:37:44;;;;;;;;;;;3.30;99.90;;;;;;4944776;28;20076;-70
2022/01/06 09:40:12;;;;;;;;;;;3.30;99.90;;;;;;4961597;28;20093;-70
2022/01/06 09:42:41;;;;;;;;;;;3.20;99.90;;;;;;4961439;28;20077;-70
2022/01/06 09:45:08;;;;;;;;;;;3.30;99.90;;;;;;4961504;28;20052;-70
2022/01/06 09:47:37;;;;;;;;;;;3.30;99.90;;;;;;4960880;28;21070;-70
2022/01/06 09:50:04;;;;;;;;;;;3.40;99.90;;;;;;4955007;28;20077;-70
2022/01/06 09:52:33;;;;;;;;;;;3.60;99.90;;;;;;4958183;28;20151;-70
2022/01/06 09:55:02;;;;;;;;;;;3.70;99.90;;;;;;4964183;28;21367;-70
2022/01/06 09:57:30;;;;;;;;;;;3.90;99.90;;;;;;4962975;28;20076;-70
2022/01/06 09:59:57;;;;;;;;;;;3.90;99.90;;;;;;4977954;28;20145;-71
2022/01/06 10:02:33;;;;;;;;;;;3.90;99.90;;;;;;4977259;28;20081;-69
2022/01/06 10:05:02;;;;;;;;;;;3.90;99.90;;;;;;4979861;28;20180;-70
2022/01/06 10:07:35;;;;;;;;;;;3.90;99.90;;;;;;4979517;28;20061;-70
2022/01/06 10:10:05;;;;;;;;;;;3.90;99.90;;;;;;4981142;28;20066;-70
2022/01/06 10:12:32;;;;;;;;;;;4.10;99.90;;;;;;4962235;28;20166;-70
2022/01/06 10:15:00;;;;;;;;;;;4.20;99.90;;;;;;4979263;28;20052;-70
2022/01/06 10:17:30;;;;;;;;;;;4.30;99.90;;;;;;4963610;28;21098;-70
2022/01/06 10:19:57;;;;;;;;;;;4.40;99.90;;;;;;4963203;28;20052;-70
2022/01/06 10:22:27;;;;;;;;;;;4.50;99.90;;;;;;4978988;28;20060;-70
2022/01/06 10:24:55;;;;;;;;;;;4.50;99.90;;;;;;4963403;28;20061;-70
2022/01/06 10:27:22;;;;;;;;;;;4.60;99.90;;;;;;4978918;28;21124;-70
2022/01/06 10:29:50;;;;;;;;;;;4.70;99.90;;;;;;4962448;28;20089;-70
2022/01/06 10:32:18;;;;;;;;;;;4.80;99.90;;;;;;4962408;28;20052;-71
2022/01/06 10:34:46;;;;;;;;;;;4.90;99.90;;;;;;4979643;28;20101;-72
2022/01/06 10:37:20;;;;;;;;;;;5.00;99.90;;;;;;4979366;28;21196;-71
2022/01/06 10:39:50;;;;;;;;;;;5.10;99.90;;;;;;4978842;28;20068;-71
2022/01/06 10:42:17;;;;;;;;;;;5.30;99.90;;;;;;4961495;28;20084;-71
2022/01/06 10:44:48;;;;;;;;;;;5.60;99.90;;;;;;4962971;28;20171;-71
2022/01/06 10:47:15;;;;;;;;;;;6.30;99.90;;;;;;4969981;28;20066;-71
2022/01/06 10:49:42;;;;;;;;;;;7.30;99.90;;;;;;4978167;28;21078;-72
2022/01/06 10:52:10;;;;;;;;;;;8.90;99.90;;;;;;4976233;28;20061;-72
2022/01/06 10:54:37;;;;;;;;;;;8.90;99.90;;;;;;4964408;28;20243;-72
2022/01/06 10:57:07;;;;;;;;;;;8.40;99.90;;;;;;4971416;28;20998;-71
2022/01/06 10:59:35;;;;;;;;;;;7.50;99.90;;;;;;4964053;28;20076;-72
2022/01/06 11:02:03;;;;;;;;;;;7.20;99.90;;;;;;4981202;28;20094;-71
2022/01/06 11:04:30;;;;;;;;;;;7.00;99.90;;;;;;4983823;28;20077;-72
2022/01/06 11:06:57;;;;;;;;;;;6.80;99.90;;;;;;4983887;28;20059;-72
2022/01/06 11:09:26;;;;;;;;;;;6.60;99.90;;;;;;4983144;28;21033;-72
2022/01/06 11:14:37;;;;;;;;;;;6.70;99.90;;;;;;4953467;28;20065;-71
2022/01/06 11:17:04;;;;;;;;;;;6.70;99.90;;;;;;4961798;28;20080;-72
2022/01/06 11:19:31;;;;;;;;;;;6.90;99.90;;;;;;4967486;28;21076;-72
2022/01/06 11:22:01;;;;;;;;;;;7.20;99.90;;;;;;4968153;28;21138;-71
2022/01/06 11:24:28;;;;;;;;;;;7.50;99.90;;;;;;4968845;28;20277;-72
2022/01/06 11:27:00;;;;;;;;;;;7.90;99.90;;;;;;4967322;28;20067;-72
2022/01/06 11:29:27;;;;;;;;;;;8.10;99.90;;;;;;4983681;28;20071;-72
2022/01/06 11:31:57;;;;;;;;;;;8.30;99.90;;;;;;4968013;28;20068;-71
2022/01/06 11:34:24;;;;;;;;;;;8.40;99.90;;;;;;4967284;28;21229;-72
2022/01/06 11:36:54;;;;;;;;;;;9.20;99.90;;;;;;4967539;28;20070;-71
2022/01/06 11:39:26;;;;;;;;;;;9.40;99.90;;;;;;4983405;28;20061;-71
2022/01/06 11:41:54;;;;;;;;;;;9.60;99.90;;;;;;4962023;28;20085;-72
2022/01/06 11:44:21;;;;;;;;;;;10.00;99.90;;;;;;4965894;28;20271;-71
2022/01/06 11:46:49;;;;;;;;;;;9.30;99.90;;;;;;4963445;28;20061;-71
2022/01/06 11:49:29;;;;;;;;;;;8.40;99.90;;;;;;4968551;28;21252;-71
2022/01/06 11:52:04;;;;;;;;;;;7.90;99.90;;;;;;4982044;28;20107;-71
2022/01/06 11:54:31;;;;;;;;;;;7.40;99.90;;;;;;4972529;28;21087;-71
2022/01/06 11:56:59;;;;;;;;;;;7.70;99.90;;;;;;4966424;28;20069;-71
2022/01/06 11:59:30;;;;;;;;;;;8.50;99.90;;;;;;4966360;28;20061;-72
2022/01/06 12:01:58;;;;;;;;;;;9.70;99.90;;;;;;4964807;28;20070;-72
2022/01/06 12:04:27;;;;;;;;;;;9.90;99.90;;;;;;4981933;28;20069;-73
2022/01/06 12:07:03;;;;;;;;;;;11.70;99.90;;;;;;4981876;28;20068;-71
2022/01/06 12:09:30;;;;;;;;;;;11.40;99.90;;;;;;4981716;28;20060;-71
2022/01/06 12:12:01;;;;;;;;;;;10.60;99.90;;;;;;4978969;28;20175;-71
2022/01/06 12:14:29;;;;;;;;;;;9.70;99.90;;;;;;4981706;28;20090;-72
2022/01/06 12:17:02;;;;;;;;;;;10.10;99.90;;;;;;4981239;28;20060;-72
2022/01/06 12:19:31;;;;;;;;;;;11.40;99.90;;;;;;4982093;28;20060;-72
2022/01/06 12:21:58;;;;;;;;;;;;;;;;;;4981717;28;20108;-70
2022/01/06 12:24:25;;;;;;;;;;;15.90;99.90;;;;;;4982177;28;20060;-70
2022/01/06 12:26:53;;;;;;;;;;;17.50;99.90;;;;;;4981298;28;21145;-70
2022/01/06 12:29:23;;;;;;;;;;;18.70;99.90;;;;;;4980978;28;20060;-70
2022/01/06 12:31:50;;;;;;;;;;;17.90;99.90;;;;;;4980845;28;20133;-70
2022/01/06 12:34:20;;;;;;;;;;;18.60;99.90;;;;;;4981242;28;20075;-70
2022/01/06 12:36:49;;;;;;;;;;;19.20;99.90;;;;;;4979023;28;21157;-70
2022/01/06 12:39:17;;;;;;;;;;;18.70;99.90;;;;;;4976688;28;20061;-70
2022/01/06 12:41:45;;;;;;;;;;;18.40;99.90;;;;;;4976733;28;20196;-69
2022/01/06 12:44:17;;;;;;;;;;;19.00;99.90;;;;;;4976245;28;20068;-70
2022/01/06 12:46:45;;;;;;;;;;;19.50;99.90;;;;;;4976562;28;20216;-69
2022/01/06 12:49:13;;;;;;;;;;;19.60;99.90;;;;;;4976983;28;20052;-69
2022/01/06 12:51:44;;;;;;;;;;;19.30;99.90;;;;;;4977279;28;20229;-70
2022/01/06 12:54:15;;;;;;;;;;;19.70;99.90;;;;;;4981755;28;21190;-70
2022/01/06 12:56:43;;;;;;;;;;;20.00;99.90;;;;;;4980660;28;20052;-69
2022/01/06 12:59:11;;;;;;;;;;;18.30;99.90;;;;;;4980797;28;21104;-70
2022/01/06 13:01:39;;;;;;;;;;;16.00;99.90;;;;;;4980766;28;20163;-70
2022/01/06 13:04:07;;;;;;;;;;;16.50;99.90;;;;;;4980393;28;21082;-70
2022/01/06 13:06:35;;;;;;;;;;;17.00;99.90;;;;;;4980899;28;21046;-70
2022/01/06 13:09:13;;;;;;;;;;;17.70;99.90;;;;;;4963408;28;20060;-70
2022/01/06 13:11:48;;;;;;;;;;;18.40;99.90;;;;;;4970453;28;21142;-70
2022/01/06 13:14:28;;;;;;;;;;;19.10;99.90;;;;;;4980973;28;20080;-70
2022/01/06 13:17:05;;;;;;;;;;;19.20;99.90;;;;;;4979736;28;20644;-70
2022/01/06 13:19:33;;;;;;;;;;;19.20;99.90;;;;;;4980000;28;20053;-70
2022/01/06 13:22:04;;;;;;;;;;;17.50;99.90;;;;;;4964255;28;20068;-70
2022/01/06 13:24:32;;;;;;;;;;;16.70;99.90;;;;;;4964488;28;20089;-70
2022/01/06 13:27:03;;;;;;;;;;;17.60;99.90;;;;;;4980146;28;20059;-70
2022/01/06 13:29:32;;;;;;;;;;;19.30;99.90;;;;;;4963531;28;20160;-70
2022/01/06 13:32:07;;;;;;;;;;;19.20;99.90;;;;;;4963716;28;20069;-69
2022/01/06 13:34:35;;;;;;;;;;;19.00;99.90;;;;;;4964884;28;20172;-70
2022/01/06 13:37:03;;;;;;;;;;;19.00;99.90;;;;;;4980632;28;21081;-70
2022/01/06 13:39:47;;;;;;;;;;;18.80;99.90;;;;;;5081872;27;20038;-71
2022/01/06 13:42:25;;;;;;;;;;;18.30;99.90;;;;;;5077428;27;20075;-71
2022/01/06 13:44:56;;;;;;;;;;;16.70;99.90;;;;;;5072463;28;20266;-71
2022/01/06 13:47:30;;;;;;;;;;;15.90;99.90;;;;;;5080293;27;20059;-71
2022/01/06 13:52:47;;;;;;;;;;;10.70;99.90;;;;;;5080685;27;20062;-70
2022/01/06 13:55:16;;;;;;;;;;;10.80;99.90;;;;;;5082607;27;20082;-71
2022/01/06 13:57:45;;;;;;;;;;;10.20;99.90;;;;;;5080659;27;20075;-70
2022/01/06 14:00:12;;;;;;;;;;;9.20;99.90;;;;;;5082187;27;20074;-72
2022/01/06 14:02:41;;;;;;;;;;;9.10;99.90;;;;;;5083615;27;20159;-76
2022/01/06 14:05:08;;;;;;;;;;;10.60;99.90;;;;;;5071474;27;20078;-69
2022/01/06 14:07:36;;;;;;;;;;;9.80;99.90;;;;;;5091488;27;20068;-70
2022/01/06 14:10:05;;;;;;;;;;;8.70;99.90;;;;;;5077721;27;20069;-70
2022/01/06 14:12:33;;;;;;;;;;;8.10;99.90;;;;;;5080733;27;20059;-70
2022/01/06 14:15:01;;;;;;;;;;;10.20;99.90;;;;;;5087151;27;20148;-69
2022/01/06 14:17:29;;;;;;;;;;;12.20;99.90;;;;;;5079616;27;20066;-70
2022/01/06 14:19:56;;;;;;;;;;;13.00;99.90;;;;;;5079700;27;20083;-70
2022/01/06 14:22:25;;;;;;;;;;;13.60;99.90;;;;;;5080443;27;20067;-68
2022/01/06 14:24:53;;;;;;;;;;;14.00;99.90;;;;;;5094838;27;20285;-70
2022/01/06 14:28:53;;;;;;;;;;;13.60;99.90;;;;;;5065444;27;20048;-71
2022/01/06 14:31:20;;;;;;;;;;;13.60;99.90;;;;;;5069103;28;20076;-70
2022/01/06 14:33:47;;;;;;;;;;;14.00;99.90;;;;;;5059875;28;20059;-69
2022/01/06 14:36:14;;;;;;;;;;;14.10;99.90;;;;;;5052283;28;20082;-69
2022/01/06 14:38:42;;;;;;;;;;;14.40;99.90;;;;;;5035786;28;20223;-70
2022/01/06 14:41:09;;;;;;;;;;;14.30;99.90;;;;;;5031984;28;20067;-70
2022/01/06 14:43:37;;;;;;;;;;;14.40;99.90;;;;;;5043143;28;20069;-71